Terminal Aerodrome Forecast
Issued by NWS Green Bay, WI

Home | Current Version | Previous Version | Text Only | Print | Product List | Glossary Off
Versions: 1 2 3 4 5 6 7 8 9 10 11 12 13 14 15 16 17 18 19 20 21 22 23 24 25 26 27 28 29 30 31 32 33 34 35 36 37 38 39

000
FTUS43 KGRB 310000 AAA
TAFGRB
TAF AMD
KGRB 310041Z 3101/3124 21006KT P6SM SCT050 OVC070
     FM310200 07006KT P6SM -RA SCT025 OVC040
     FM310500 04009KT 6SM -RA SCT010 OVC025
      TEMPO 3105/3107 4SM -RA BKN010
     FM310700 03009KT P6SM SCT015 BKN030
     FM311500 32005KT P6SM BKN025
     FM312000 29005KT P6SM VCSH BKN040=

USA.gov is the U.S. government's official web portal to all federal, state and local government web resources and services.